Time;durP1;ratioP1;P1;durP2;ratioP2;P2;SDS_P1;SDS_P2;PMS_P1;PMS_P2;Temp;Humidity;BMP_temperature;BMP_pressure;BME280_temperature;BME280_humidity;BME280_pressure;Samples;Min_cycle;Max_cycle;Signal;HPM_P1;HPM_P2
2023/05/18 00:00:14;;;;;;;;;;;;;;;;;;1042230;28;4000;-53
2023/05/18 00:01:05;;;;;;;;;;;;;;;;;;1037083;28;3995;-52
2023/05/18 00:01:39;;;;;;;;;;;;;;;;;;1039172;28;1507;-49
2023/05/18 00:02:14;;;;;;;;;;;;;;;;;;1036696;28;3792;-53
2023/05/18 00:02:47;;;;;;;;;;;;;;;;;;1041917;28;2808;-54
2023/05/18 00:03:17;;;;;;;;;;;;;;;;;;1042640;28;3962;-51
2023/05/18 00:03:47;;;;;;;;;;;;;;;;;;1043434;28;3199;-47
2023/05/18 00:04:22;;;;;;;;;;;;;;;;;;1042142;28;3773;-49
2023/05/18 00:04:53;;;;;;;;;;;;;;;;;;1042163;28;3792;-50
2023/05/18 00:05:23;;;;;;;;;;;;;;;;;;1041842;28;2863;-53
2023/05/18 00:05:56;;;;;;;;;;;;;;;;;;1042468;28;3800;-48
2023/05/18 00:06:26;;;;;;;;;;;;;;;;;;1043395;28;2174;-50
2023/05/18 00:06:57;;;;;;;;;;;;;;;;;;1043051;28;3945;-49
2023/05/18 00:07:32;;;;;;;;;;;;;;;;;;1042126;28;2954;-49
2023/05/18 00:08:03;;;;;;;;;;;;;;;;;;1042583;28;4402;-48
2023/05/18 00:08:33;;;;;;;;;;;;;;;;;;1042717;28;1911;-48
2023/05/18 00:09:04;;;;;;;;;;;;;;;;;;1042914;28;3863;-52
2023/05/18 00:09:35;;;;;;;;;;;;;;;;;;1042260;28;1972;-55
2023/05/18 00:10:06;;;;;;;;;;;;;;;;;;1043173;28;3961;-53
2023/05/18 00:10:36;;;;;;;;;;;;;;;;;;1042358;28;2863;-50
2023/05/18 00:11:06;;;;;;;;;;;;;;;;;;1041260;28;3884;-49
2023/05/18 00:11:39;;;;;;;;;;;;;;;;;;1043136;28;1734;-50
2023/05/18 00:12:10;;;;;;;;;;;;;;;;;;1042108;28;3955;-48
2023/05/18 00:12:40;;;;;;;;;;;;;;;;;;1043696;28;1613;-49
2023/05/18 00:13:10;;;;;;;;;;;;;;;;;;1042027;28;4443;-51
2023/05/18 00:13:40;;;;;;;;;;;;;;;;;;1043398;28;1697;-49
2023/05/18 00:14:11;;;;;;;;;;;;;;;;;;1041778;28;4060;-50
2023/05/18 00:14:41;;;;;;;;;;;;;;;;;;1042222;28;2983;-53
2023/05/18 00:15:11;;;;;;;;;;;;;;;;;;1039691;28;4021;-51
2023/05/18 00:15:42;;;;;;;;;;;;;;;;;;1043273;28;1347;-51
2023/05/18 00:16:14;;;;;;;;;;;;;;;;;;1042532;28;4047;-51
2023/05/18 00:16:44;;;;;;;;;;;;;;;;;;1041585;28;3179;-54
2023/05/18 00:17:15;;;;;;;;;;;;;;;;;;1042223;28;3898;-48
2023/05/18 00:17:45;;;;;;;;;;;;;;;;;;1042683;28;2007;-49
2023/05/18 00:18:15;;;;;;;;;;;;;;;;;;1037996;28;4523;-52
2023/05/18 00:18:46;;;;;;;;;;;;;;;;;;1037858;28;2825;-48
2023/05/18 00:19:16;;;;;;;;;;;;;;;;;;1037933;28;4035;-53
2023/05/18 00:19:46;;;;;;;;;;;;;;;;;;1036131;28;2943;-49
2023/05/18 00:20:20;;;;;;;;;;;;;;;;;;1037649;28;4091;-49
2023/05/18 00:20:57;;;;;;;;;;;;;;;;;;1037181;28;3016;-53
2023/05/18 00:21:29;;;;;;;;;;;;;;;;;;1037543;28;3808;-51
2023/05/18 00:22:01;;;;;;;;;;;;;;;;;;1037077;28;4099;-49
2023/05/18 00:22:31;;;;;;;;;;;;;;;;;;1037164;28;3039;-49
2023/05/18 00:23:01;;;;;;;;;;;;;;;;;;1037674;28;4000;-53
2023/05/18 00:23:32;;;;;;;;;;;;;;;;;;1037537;28;2911;-49
2023/05/18 00:24:03;;;;;;;;;;;;;;;;;;1037508;28;4534;-51
2023/05/18 00:24:33;;;;;;;;;;;;;;;;;;1038170;28;2753;-49
2023/05/18 00:25:03;;;;;;;;;;;;;;;;;;1038202;28;4116;-51
2023/05/18 00:25:34;;;;;;;;;;;;;;;;;;1034938;28;2947;-52
2023/05/18 00:26:04;;;;;;;;;;;;;;;;;;1037757;28;3925;-55
2023/05/18 00:26:35;;;;;;;;;;;;;;;;;;1034509;28;2967;-49
2023/05/18 00:27:05;;;;;;;;;;;;;;;;;;1037820;28;4000;-50
2023/05/18 00:27:36;;;;;;;;;;;;;;;;;;1037612;28;2944;-49
2023/05/18 00:28:06;;;;;;;;;;;;;;;;;;1038829;28;3943;-54
2023/05/18 00:28:36;;;;;;;;;;;;;;;;;;1036592;28;2984;-55
2023/05/18 00:29:06;;;;;;;;;;;;;;;;;;1038814;28;4243;-53
2023/05/18 00:29:37;;;;;;;;;;;;;;;;;;1038679;28;1884;-50
2023/05/18 00:30:07;;;;;;;;;;;;;;;;;;1037249;28;4407;-53
2023/05/18 00:30:38;;;;;;;;;;;;;;;;;;1038018;28;3078;-48
2023/05/18 00:31:08;;;;;;;;;;;;;;;;;;1038036;28;3881;-54
2023/05/18 00:31:39;;;;;;;;;;;;;;;;;;1039429;28;1543;-51
2023/05/18 00:32:09;;;;;;;;;;;;;;;;;;1035863;28;4088;-51
2023/05/18 00:32:39;;;;;;;;;;;;;;;;;;1039285;28;1842;-53
2023/05/18 00:33:10;;;;;;;;;;;;;;;;;;1036704;28;4126;-53
2023/05/18 00:33:40;;;;;;;;;;;;;;;;;;1039252;28;1744;-51
2023/05/18 00:34:11;;;;;;;;;;;;;;;;;;1035298;28;3908;-54
2023/05/18 00:34:41;;;;;;;;;;;;;;;;;;1039342;28;2916;-53
2023/05/18 00:35:12;;;;;;;;;;;;;;;;;;1037204;28;3909;-53
2023/05/18 00:35:42;;;;;;;;;;;;;;;;;;1036907;28;2976;-52
2023/05/18 00:36:12;;;;;;;;;;;;;;;;;;1036593;28;4061;-51
2023/05/18 00:36:43;;;;;;;;;;;;;;;;;;1034395;28;2838;-51
2023/05/18 00:37:13;;;;;;;;;;;;;;;;;;1035157;28;3965;-48
2023/05/18 00:37:43;;;;;;;;;;;;;;;;;;1035410;28;2898;-48
2023/05/18 00:38:16;;;;;;;;;;;;;;;;;;1036435;28;4069;-55
2023/05/18 00:38:46;;;;;;;;;;;;;;;;;;1036349;28;2841;-53
2023/05/18 00:39:17;;;;;;;;;;;;;;;;;;1036622;28;3940;-50
2023/05/18 00:39:47;;;;;;;;;;;;;;;;;;1037418;28;3289;-51
2023/05/18 00:40:17;;;;;;;;;;;;;;;;;;1038384;28;3857;-52
2023/05/18 00:40:48;;;;;;;;;;;;;;;;;;1031449;28;3043;-50
2023/05/18 00:41:18;;;;;;;;;;;;;;;;;;1032850;28;3767;-49
2023/05/18 00:41:48;;;;;;;;;;;;;;;;;;1033669;28;3362;-47
2023/05/18 00:42:19;;;;;;;;;;;;;;;;;;1032950;28;5511;-53
2023/05/18 00:42:49;;;;;;;;;;;;;;;;;;1038069;28;2996;-52
2023/05/18 00:43:20;;;;;;;;;;;;;;;;;;1040829;28;4164;-48
2023/05/18 00:43:50;;;;;;;;;;;;;;;;;;1039533;28;3552;-49
2023/05/18 00:44:20;;;;;;;;;;;;;;;;;;1039448;28;3883;-51
2023/05/18 00:44:50;;;;;;;;;;;;;;;;;;1041483;28;2951;-50
2023/05/18 00:45:21;;;;;;;;;;;;;;;;;;1038639;28;4937;-50
2023/05/18 00:45:51;;;;;;;;;;;;;;;;;;1040919;28;2885;-49
2023/05/18 00:46:22;;;;;;;;;;;;;;;;;;1042724;28;3850;-47
2023/05/18 00:46:52;;;;;;;;;;;;;;;;;;1041806;28;4060;-50
2023/05/18 00:47:23;;;;;;;;;;;;;;;;;;1041564;28;2796;-51
2023/05/18 00:47:53;;;;;;;;;;;;;;;;;;1041713;28;3961;-54
2023/05/18 00:48:23;;;;;;;;;;;;;;;;;;1037368;28;2917;-53
2023/05/18 00:48:55;;;;;;;;;;;;;;;;;;1036071;28;4449;-49
2023/05/18 00:49:26;;;;;;;;;;;;;;;;;;1037339;28;2873;-50
2023/05/18 00:49:56;;;;;;;;;;;;;;;;;;1038448;28;3967;-50
2023/05/18 00:50:27;;;;;;;;;;;;;;;;;;1041350;28;2941;-49
2023/05/18 00:50:57;;;;;;;;;;;;;;;;;;1042927;28;4062;-52
2023/05/18 00:51:28;;;;;;;;;;;;;;;;;;1042745;28;2002;-50
2023/05/18 00:51:58;;;;;;;;;;;;;;;;;;1042929;28;3766;-51
2023/05/18 00:52:28;;;;;;;;;;;;;;;;;;1041455;28;3146;-47
2023/05/18 00:52:59;;;;;;;;;;;;;;;;;;1041340;28;4057;-47
2023/05/18 00:53:30;;;;;;;;;;;;;;;;;;1037164;28;2572;-53
2023/05/18 00:54:01;;;;;;;;;;;;;;;;;;1038722;28;3795;-49
2023/05/18 00:54:33;;;;;;;;;;;;;;;;;;1034294;28;1379;-53
2023/05/18 00:55:04;;;;;;;;;;;;;;;;;;1034615;28;3889;-48
2023/05/18 00:55:34;;;;;;;;;;;;;;;;;;1038075;28;3312;-48
2023/05/18 00:56:05;;;;;;;;;;;;;;;;;;1038701;28;4054;-52
2023/05/18 00:56:40;;;;;;;;;;;;;;;;;;1041973;28;2867;-50
2023/05/18 00:57:11;;;;;;;;;;;;;;;;;;1042513;28;3897;-52
2023/05/18 00:57:43;;;;;;;;;;;;;;;;;;1042518;28;1752;-50
2023/05/18 00:58:13;;;;;;;;;;;;;;;;;;1042953;28;3870;-52
2023/05/18 00:58:44;;;;;;;;;;;;;;;;;;1041519;28;2647;-52
2023/05/18 00:59:15;;;;;;;;;;;;;;;;;;1042450;28;3901;-54
2023/05/18 00:59:45;;;;;;;;;;;;;;;;;;1042621;28;1777;-52
2023/05/18 01:00:16;;;;;;;;;;;;;;;;;;1042106;28;4423;-48
2023/05/18 01:00:46;;;;;;;;;;;;;;;;;;1042421;28;2988;-47
2023/05/18 01:01:18;;;;;;;;;;;;;;;;;;1043284;28;3880;-51
2023/05/18 01:01:48;;;;;;;;;;;;;;;;;;1043422;28;1775;-49
2023/05/18 01:02:19;;;;;;;;;;;;;;;;;;1041218;28;3950;-49
2023/05/18 01:02:49;;;;;;;;;;;;;;;;;;1042651;28;2668;-49
2023/05/18 01:03:20;;;;;;;;;;;;;;;;;;1041731;28;4022;-50
2023/05/18 01:03:55;;;;;;;;;;;;;;;;;;1043274;28;1679;-51
2023/05/18 01:04:26;;;;;;;;;;;;;;;;;;1042005;28;3867;-50
2023/05/18 01:04:59;;;;;;;;;;;;;;;;;;1042895;28;4002;-53
2023/05/18 01:05:29;;;;;;;;;;;;;;;;;;1041876;28;3038;-52
2023/05/18 01:06:00;;;;;;;;;;;;;;;;;;1042915;28;3869;-51
2023/05/18 01:06:36;;;;;;;;;;;;;;;;;;1042766;28;2062;-49
2023/05/18 01:07:06;;;;;;;;;;;;;;;;;;1040043;28;3938;-52
2023/05/18 01:07:38;;;;;;;;;;;;;;;;;;1037293;28;2957;-51
2023/05/18 01:08:08;;;;;;;;;;;;;;;;;;1038167;28;3937;-49
2023/05/18 01:08:41;;;;;;;;;;;;;;;;;;1036342;28;2986;-48
2023/05/18 01:09:12;;;;;;;;;;;;;;;;;;1036123;28;4371;-54
2023/05/18 01:09:43;;;;;;;;;;;;;;;;;;1035464;28;1673;-52
2023/05/18 01:10:15;;;;;;;;;;;;;;;;;;1037912;28;3942;-49
2023/05/18 01:10:47;;;;;;;;;;;;;;;;;;1035216;28;2279;-47
2023/05/18 01:11:25;;;;;;;;;;;;;;;;;;1036428;28;4355;-53
2023/05/18 01:11:55;;;;;;;;;;;;;;;;;;1037588;28;3925;-49
2023/05/18 01:12:38;;;;;;;;;;;;;;;;;;1039453;28;1644;-52
2023/05/18 01:13:11;;;;;;;;;;;;;;;;;;1038043;28;4012;-51
2023/05/18 01:13:49;;;;;;;;;;;;;;;;;;1038555;28;3022;-49
2023/05/18 01:14:35;;;;;;;;;;;;;;;;;;1037670;28;3879;-50
2023/05/18 01:15:21;;;;;;;;;;;;;;;;;;1034731;28;3935;-53
2023/05/18 01:15:53;;;;;;;;;;;;;;;;;;1038181;28;1671;-50
2023/05/18 01:16:33;;;;;;;;;;;;;;;;;;1042764;28;3973;-52
2023/05/18 01:17:22;;;;;;;;;;;;;;;;;;1041849;28;3999;-55
2023/05/18 01:18:13;;;;;;;;;;;;;;;;;;1041693;28;1606;-51
2023/05/18 01:18:53;;;;;;;;;;;;;;;;;;1040481;28;3824;-53
2023/05/18 01:19:43;;;;;;;;;;;;;;;;;;1041079;28;4002;-51
2023/05/18 01:20:32;;;;;;;;;;;;;;;;;;1042385;28;3855;-54
2023/05/18 01:21:12;;;;;;;;;;;;;;;;;;1041767;28;4151;-51
2023/05/18 01:21:45;;;;;;;;;;;;;;;;;;1042292;28;3318;-52
2023/05/18 01:22:36;;;;;;;;;;;;;;;;;;1041277;28;3763;-52
2023/05/18 01:23:28;;;;;;;;;;;;;;;;;;1031160;28;4400;-52
2023/05/18 01:24:18;;;;;;;;;;;;;;;;;;1037268;28;3777;-57
2023/05/18 01:24:52;;;;;;;;;;;;;;;;;;1037908;28;2901;-53
2023/05/18 01:25:41;;;;;;;;;;;;;;;;;;1041954;28;3980;-52
2023/05/18 01:26:14;;;;;;;;;;;;;;;;;;1042351;28;4449;-50
2023/05/18 01:26:45;;;;;;;;;;;;;;;;;;1040608;28;2995;-50
2023/05/18 01:27:16;;;;;;;;;;;;;;;;;;1042235;28;3958;-54
2023/05/18 01:27:48;;;;;;;;;;;;;;;;;;1042704;28;1363;-50
2023/05/18 01:28:27;;;;;;;;;;;;;;;;;;1040393;28;4077;-52
2023/05/18 01:28:58;;;;;;;;;;;;;;;;;;1038765;28;4052;-55
2023/05/18 01:29:29;;;;;;;;;;;;;;;;;;1041767;28;2903;-50
2023/05/18 01:30:00;;;;;;;;;;;;;;;;;;1042418;28;3933;-50
2023/05/18 01:30:32;;;;;;;;;;;;;;;;;;1041044;28;3226;-52
2023/05/18 01:31:02;;;;;;;;;;;;;;;;;;1041220;28;3867;-49
2023/05/18 01:31:33;;;;;;;;;;;;;;;;;;1041017;28;3057;-51
2023/05/18 01:32:05;;;;;;;;;;;;;;;;;;1041530;28;3944;-54
2023/05/18 01:32:41;;;;;;;;;;;;;;;;;;1041863;28;2735;-50
2023/05/18 01:33:12;;;;;;;;;;;;;;;;;;1042098;28;3976;-54
2023/05/18 01:33:43;;;;;;;;;;;;;;;;;;1041106;28;2871;-51
2023/05/18 01:34:13;;;;;;;;;;;;;;;;;;1041236;28;4139;-50
2023/05/18 01:34:43;;;;;;;;;;;;;;;;;;1040647;28;3559;-48
2023/05/18 01:35:13;;;;;;;;;;;;;;;;;;1041674;28;4702;-49
2023/05/18 01:35:47;;;;;;;;;;;;;;;;;;1040217;28;3075;-51
2023/05/18 01:36:17;;;;;;;;;;;;;;;;;;1040769;28;3910;-51
2023/05/18 01:36:47;;;;;;;;;;;;;;;;;;1041670;28;3317;-48
2023/05/18 01:37:18;;;;;;;;;;;;;;;;;;1042547;28;4063;-50
2023/05/18 01:37:48;;;;;;;;;;;;;;;;;;1043111;28;3142;-50
2023/05/18 01:38:20;;;;;;;;;;;;;;;;;;1042977;28;3927;-50
2023/05/18 01:38:50;;;;;;;;;;;;;;;;;;1042398;28;2931;-49
2023/05/18 01:39:21;;;;;;;;;;;;;;;;;;1040435;28;3912;-52
2023/05/18 01:39:51;;;;;;;;;;;;;;;;;;1043180;28;1890;-50
2023/05/18 01:40:22;;;;;;;;;;;;;;;;;;1043034;28;3808;-56
2023/05/18 01:40:58;;;;;;;;;;;;;;;;;;1042712;28;1955;-51
2023/05/18 01:41:30;;;;;;;;;;;;;;;;;;1042243;28;3685;-51
2023/05/18 01:42:05;;;;;;;;;;;;;;;;;;1036591;28;4137;-54
2023/05/18 01:42:38;;;;;;;;;;;;;;;;;;1039107;28;1737;-53
2023/05/18 01:43:14;;;;;;;;;;;;;;;;;;1038690;28;4218;-49
2023/05/18 01:44:04;;;;;;;;;;;;;;;;;;1040754;28;2704;-52
2023/05/18 01:44:54;;;;;;;;;;;;;;;;;;1037136;28;3933;-50
2023/05/18 01:45:26;;;;;;;;;;;;;;;;;;1032424;28;3840;-48
2023/05/18 01:46:00;;;;;;;;;;;;;;;;;;1035156;28;3859;-55
2023/05/18 01:46:33;;;;;;;;;;;;;;;;;;1037845;28;2866;-51
2023/05/18 01:47:09;;;;;;;;;;;;;;;;;;1039690;28;4219;-53
2023/05/18 01:47:41;;;;;;;;;;;;;;;;;;1043825;28;2866;-49
2023/05/18 01:48:15;;;;;;;;;;;;;;;;;;1043188;28;4009;-54
2023/05/18 01:48:48;;;;;;;;;;;;;;;;;;1043311;28;2922;-47
2023/05/18 01:49:37;;;;;;;;;;;;;;;;;;1042488;28;3973;-52
2023/05/18 01:50:17;;;;;;;;;;;;;;;;;;1042744;28;4358;-51
2023/05/18 01:50:50;;;;;;;;;;;;;;;;;;1043766;28;2884;-54
2023/05/18 01:51:24;;;;;;;;;;;;;;;;;;1042410;28;3728;-54
2023/05/18 01:51:56;;;;;;;;;;;;;;;;;;1043049;28;3891;-47
2023/05/18 01:52:37;;;;;;;;;;;;;;;;;;1044190;28;2847;-49
2023/05/18 01:53:23;;;;;;;;;;;;;;;;;;1042276;28;3744;-50
2023/05/18 01:54:01;;;;;;;;;;;;;;;;;;1042401;28;3983;-51
2023/05/18 01:54:32;;;;;;;;;;;;;;;;;;1039461;28;2822;-51
2023/05/18 01:55:03;;;;;;;;;;;;;;;;;;1039360;28;4297;-48
2023/05/18 01:55:35;;;;;;;;;;;;;;;;;;1039829;28;3117;-53
2023/05/18 01:56:06;;;;;;;;;;;;;;;;;;1037196;28;3813;-49
2023/05/18 01:56:37;;;;;;;;;;;;;;;;;;1037643;28;2863;-50
2023/05/18 01:57:08;;;;;;;;;;;;;;;;;;1039759;28;3957;-49
2023/05/18 01:57:40;;;;;;;;;;;;;;;;;;1037493;28;3124;-49
2023/05/18 01:58:12;;;;;;;;;;;;;;;;;;1043149;28;3993;-51
2023/05/18 01:58:43;;;;;;;;;;;;;;;;;;1041389;28;2892;-47
2023/05/18 01:59:14;;;;;;;;;;;;;;;;;;1041738;28;3756;-52
2023/05/18 01:59:45;;;;;;;;;;;;;;;;;;1042330;28;2344;-51
2023/05/18 02:00:16;;;;;;;;;;;;;;;;;;1042676;28;3757;-49
2023/05/18 02:00:46;;;;;;;;;;;;;;;;;;1042987;28;2957;-49
2023/05/18 02:01:18;;;;;;;;;;;;;;;;;;1042187;28;3799;-52
2023/05/18 02:01:49;;;;;;;;;;;;;;;;;;1043433;28;1694;-54
2023/05/18 02:02:20;;;;;;;;;;;;;;;;;;1042051;28;3848;-50
2023/05/18 02:02:50;;;;;;;;;;;;;;;;;;1041198;28;3461;-52
2023/05/18 02:03:20;;;;;;;;;;;;;;;;;;1041659;28;3796;-51
2023/05/18 02:03:51;;;;;;;;;;;;;;;;;;1041439;28;3030;-52
2023/05/18 02:04:21;;;;;;;;;;;;;;;;;;1041476;28;3780;-50
2023/05/18 02:04:51;;;;;;;;;;;;;;;;;;1044629;28;2003;-49
2023/05/18 02:05:21;;;;;;;;;;;;;;;;;;1041924;28;3724;-50
2023/05/18 02:05:52;;;;;;;;;;;;;;;;;;1038195;28;2956;-50
2023/05/18 02:06:22;;;;;;;;;;;;;;;;;;1039271;28;3907;-51
2023/05/18 02:06:53;;;;;;;;;;;;;;;;;;1038682;28;1428;-47
2023/05/18 02:07:23;;;;;;;;;;;;;;;;;;1038306;28;4062;-51
2023/05/18 02:07:53;;;;;;;;;;;;;;;;;;1042681;28;4051;-48
2023/05/18 02:08:23;;;;;;;;;;;;;;;;;;1043931;28;3175;-52
2023/05/18 02:08:54;;;;;;;;;;;;;;;;;;1042982;28;3968;-49
2023/05/18 02:09:24;;;;;;;;;;;;;;;;;;1041937;28;2986;-51
2023/05/18 02:09:55;;;;;;;;;;;;;;;;;;1041903;28;3950;-48
2023/05/18 02:10:25;;;;;;;;;;;;;;;;;;1044022;28;1593;-51
2023/05/18 02:10:55;;;;;;;;;;;;;;;;;;1043832;28;3970;-48
2023/05/18 02:11:26;;;;;;;;;;;;;;;;;;1043093;28;1849;-50
2023/05/18 02:11:56;;;;;;;;;;;;;;;;;;1043279;28;3789;-48
2023/05/18 02:12:26;;;;;;;;;;;;;;;;;;1041826;28;2910;-51
2023/05/18 02:12:57;;;;;;;;;;;;;;;;;;1042676;28;3986;-48
2023/05/18 02:13:27;;;;;;;;;;;;;;;;;;1042780;28;1862;-51
2023/05/18 02:13:57;;;;;;;;;;;;;;;;;;1037293;28;4470;-52
2023/05/18 02:14:28;;;;;;;;;;;;;;;;;;1038655;28;1944;-52
2023/05/18 02:14:59;;;;;;;;;;;;;;;;;;1035029;28;5388;-50
2023/05/18 02:15:30;;;;;;;;;;;;;;;;;;1032511;28;2969;-52
2023/05/18 02:16:02;;;;;;;;;;;;;;;;;;1036591;28;3872;-50
2023/05/18 02:16:33;;;;;;;;;;;;;;;;;;1037107;28;3142;-49
2023/05/18 02:17:05;;;;;;;;;;;;;;;;;;1038414;28;4043;-56
2023/05/18 02:17:36;;;;;;;;;;;;;;;;;;1041196;28;2988;-52
2023/05/18 02:18:07;;;;;;;;;;;;;;;;;;1042512;28;4359;-50
2023/05/18 02:18:37;;;;;;;;;;;;;;;;;;1042779;28;2577;-51
2023/05/18 02:19:07;;;;;;;;;;;;;;;;;;1037431;28;4028;-51
2023/05/18 02:19:38;;;;;;;;;;;;;;;;;;1039056;28;2140;-49
2023/05/18 02:20:08;;;;;;;;;;;;;;;;;;1038245;28;4198;-49
2023/05/18 02:20:39;;;;;;;;;;;;;;;;;;1039057;28;2919;-53
2023/05/18 02:21:09;;;;;;;;;;;;;;;;;;1037278;28;4437;-54
2023/05/18 02:21:42;;;;;;;;;;;;;;;;;;1036726;28;3034;-50
2023/05/18 02:22:12;;;;;;;;;;;;;;;;;;1037348;28;4052;-52
2023/05/18 02:22:42;;;;;;;;;;;;;;;;;;1039135;28;2917;-48
2023/05/18 02:23:13;;;;;;;;;;;;;;;;;;1042923;28;4057;-49
2023/05/18 02:23:43;;;;;;;;;;;;;;;;;;1041291;28;3084;-50
2023/05/18 02:24:13;;;;;;;;;;;;;;;;;;1042519;28;3889;-47
2023/05/18 02:24:45;;;;;;;;;;;;;;;;;;1042082;28;2907;-52
2023/05/18 02:25:15;;;;;;;;;;;;;;;;;;1040127;28;4064;-49
2023/05/18 02:25:46;;;;;;;;;;;;;;;;;;1042548;28;3517;-55
2023/05/18 02:26:16;;;;;;;;;;;;;;;;;;1040543;28;3841;-50
2023/05/18 02:26:46;;;;;;;;;;;;;;;;;;1042718;28;2884;-51
2023/05/18 02:27:17;;;;;;;;;;;;;;;;;;1037843;28;3945;-51
2023/05/18 02:27:47;;;;;;;;;;;;;;;;;;1038602;28;2845;-53
2023/05/18 02:28:17;;;;;;;;;;;;;;;;;;1038389;28;3899;-50
2023/05/18 02:28:48;;;;;;;;;;;;;;;;;;1034883;28;5022;-52
2023/05/18 02:29:18;;;;;;;;;;;;;;;;;;1040536;28;4107;-49
2023/05/18 02:29:48;;;;;;;;;;;;;;;;;;1042860;28;3163;-51
2023/05/18 02:30:19;;;;;;;;;;;;;;;;;;1040046;28;4188;-49
2023/05/18 02:30:49;;;;;;;;;;;;;;;;;;1039987;28;2973;-52
2023/05/18 02:31:19;;;;;;;;;;;;;;;;;;1042137;28;3925;-48
2023/05/18 02:31:50;;;;;;;;;;;;;;;;;;1041503;28;3074;-47
2023/05/18 02:32:20;;;;;;;;;;;;;;;;;;1042346;28;3863;-52
2023/05/18 02:32:50;;;;;;;;;;;;;;;;;;1042914;28;3053;-50
2023/05/18 02:33:24;;;;;;;;;;;;;;;;;;1042322;28;3746;-51
2023/05/18 02:33:55;;;;;;;;;;;;;;;;;;1040386;28;4533;-47
2023/05/18 02:34:26;;;;;;;;;;;;;;;;;;1041269;28;2878;-50
2023/05/18 02:34:56;;;;;;;;;;;;;;;;;;1040951;28;4711;-53
2023/05/18 02:35:27;;;;;;;;;;;;;;;;;;1042617;28;2785;-50
2023/05/18 02:35:57;;;;;;;;;;;;;;;;;;1041992;28;3939;-52
2023/05/18 02:36:35;;;;;;;;;;;;;;;;;;1042257;28;3110;-50
2023/05/18 02:37:06;;;;;;;;;;;;;;;;;;1041223;28;4381;-52
2023/05/18 02:37:42;;;;;;;;;;;;;;;;;;1042234;28;3091;-53
2023/05/18 02:38:13;;;;;;;;;;;;;;;;;;1041626;28;3788;-53
2023/05/18 02:38:43;;;;;;;;;;;;;;;;;;1041063;28;2956;-50
2023/05/18 02:39:13;;;;;;;;;;;;;;;;;;1040727;28;4069;-48
2023/05/18 02:39:43;;;;;;;;;;;;;;;;;;1042328;28;3576;-51
2023/05/18 02:40:14;;;;;;;;;;;;;;;;;;1041528;28;4215;-54
2023/05/18 02:40:45;;;;;;;;;;;;;;;;;;1041474;28;2912;-50
2023/05/18 02:41:15;;;;;;;;;;;;;;;;;;1041820;28;4009;-47
2023/05/18 02:41:45;;;;;;;;;;;;;;;;;;1041632;28;3297;-47
2023/05/18 02:42:16;;;;;;;;;;;;;;;;;;1040936;28;3771;-51
2023/05/18 02:42:46;;;;;;;;;;;;;;;;;;1041801;28;2887;-51
2023/05/18 02:43:16;;;;;;;;;;;;;;;;;;1042090;28;3733;-47
2023/05/18 02:43:46;;;;;;;;;;;;;;;;;;1042118;28;2890;-53
2023/05/18 02:44:17;;;;;;;;;;;;;;;;;;1042341;28;3975;-49
2023/05/18 02:44:47;;;;;;;;;;;;;;;;;;1042225;28;2871;-49
2023/05/18 02:45:19;;;;;;;;;;;;;;;;;;1041524;28;3923;-50
2023/05/18 02:45:50;;;;;;;;;;;;;;;;;;1043005;28;1812;-55
2023/05/18 02:46:20;;;;;;;;;;;;;;;;;;1041284;28;4037;-48
2023/05/18 02:46:51;;;;;;;;;;;;;;;;;;1041759;28;3049;-47
2023/05/18 02:47:21;;;;;;;;;;;;;;;;;;1042566;28;3881;-51
2023/05/18 02:47:51;;;;;;;;;;;;;;;;;;1043396;28;1606;-52
2023/05/18 02:48:21;;;;;;;;;;;;;;;;;;1041264;28;3930;-50
2023/05/18 02:48:52;;;;;;;;;;;;;;;;;;1041871;28;3482;-50
2023/05/18 02:49:22;;;;;;;;;;;;;;;;;;1040667;28;4025;-50
2023/05/18 02:49:52;;;;;;;;;;;;;;;;;;1041642;28;3035;-51
2023/05/18 02:50:22;;;;;;;;;;;;;;;;;;1040471;28;3726;-54
2023/05/18 02:50:53;;;;;;;;;;;;;;;;;;1042071;28;4220;-50
2023/05/18 02:51:23;;;;;;;;;;;;;;;;;;1041887;28;3087;-49
2023/05/18 02:51:53;;;;;;;;;;;;;;;;;;1041541;28;4105;-47
2023/05/18 02:52:24;;;;;;;;;;;;;;;;;;1042005;28;3035;-54
2023/05/18 02:52:54;;;;;;;;;;;;;;;;;;1041660;28;3817;-55
2023/05/18 02:53:25;;;;;;;;;;;;;;;;;;1041390;28;2859;-52
2023/05/18 02:53:56;;;;;;;;;;;;;;;;;;1039024;28;3970;-53
2023/05/18 02:54:26;;;;;;;;;;;;;;;;;;1042029;28;3011;-48
2023/05/18 02:54:56;;;;;;;;;;;;;;;;;;1042330;28;3784;-50
2023/05/18 02:55:27;;;;;;;;;;;;;;;;;;1040538;28;2894;-53
2023/05/18 02:55:57;;;;;;;;;;;;;;;;;;1042207;28;3897;-57
2023/05/18 02:56:28;;;;;;;;;;;;;;;;;;1042650;28;2953;-51
2023/05/18 02:56:58;;;;;;;;;;;;;;;;;;1039453;28;3988;-54
2023/05/18 02:57:28;;;;;;;;;;;;;;;;;;1041548;28;2910;-50
2023/05/18 02:57:59;;;;;;;;;;;;;;;;;;1040852;28;4250;-51
2023/05/18 02:58:29;;;;;;;;;;;;;;;;;;1040950;28;2939;-52
2023/05/18 02:59:00;;;;;;;;;;;;;;;;;;1041311;28;4057;-52
2023/05/18 02:59:30;;;;;;;;;;;;;;;;;;1041471;28;4272;-49
2023/05/18 03:00:01;;;;;;;;;;;;;;;;;;1040694;28;3969;-55
2023/05/18 03:00:31;;;;;;;;;;;;;;;;;;1039551;28;3036;-48
2023/05/18 03:01:02;;;;;;;;;;;;;;;;;;1042530;28;4025;-52
2023/05/18 03:01:33;;;;;;;;;;;;;;;;;;1042270;28;2871;-50
2023/05/18 03:02:04;;;;;;;;;;;;;;;;;;1043098;28;4018;-50
2023/05/18 03:02:37;;;;;;;;;;;;;;;;;;1042287;28;3004;-49
2023/05/18 03:03:14;;;;;;;;;;;;;;;;;;1040793;28;3957;-50
2023/05/18 03:03:46;;;;;;;;;;;;;;;;;;1039971;28;2854;-48
2023/05/18 03:04:16;;;;;;;;;;;;;;;;;;1041847;28;3937;-50
2023/05/18 03:04:52;;;;;;;;;;;;;;;;;;1042174;28;2824;-48
2023/05/18 03:05:23;;;;;;;;;;;;;;;;;;1041610;28;3695;-52
2023/05/18 03:05:53;;;;;;;;;;;;;;;;;;1041776;28;3942;-55
2023/05/18 03:06:25;;;;;;;;;;;;;;;;;;1042285;28;2967;-53
2023/05/18 03:06:56;;;;;;;;;;;;;;;;;;1040102;28;4147;-47
2023/05/18 03:07:26;;;;;;;;;;;;;;;;;;1037279;28;3009;-53
2023/05/18 03:07:57;;;;;;;;;;;;;;;;;;1038895;28;4208;-50
2023/05/18 03:08:27;;;;;;;;;;;;;;;;;;1037692;28;3198;-54
2023/05/18 03:08:57;;;;;;;;;;;;;;;;;;1037931;28;4023;-50
2023/05/18 03:09:28;;;;;;;;;;;;;;;;;;1040690;28;3171;-49
2023/05/18 03:09:58;;;;;;;;;;;;;;;;;;1041858;28;3903;-53
2023/05/18 03:10:29;;;;;;;;;;;;;;;;;;1040653;28;3119;-47
2023/05/18 03:10:59;;;;;;;;;;;;;;;;;;1040821;28;3930;-49
2023/05/18 03:11:29;;;;;;;;;;;;;;;;;;1042845;28;1581;-50
2023/05/18 03:12:00;;;;;;;;;;;;;;;;;;1041689;28;4022;-53
2023/05/18 03:12:30;;;;;;;;;;;;;;;;;;1041045;28;3283;-52
2023/05/18 03:13:00;;;;;;;;;;;;;;;;;;1042739;28;3964;-51
2023/05/18 03:13:30;;;;;;;;;;;;;;;;;;1041777;28;2949;-53
2023/05/18 03:14:01;;;;;;;;;;;;;;;;;;1041210;28;3939;-53
2023/05/18 03:14:31;;;;;;;;;;;;;;;;;;1042006;28;3058;-48
2023/05/18 03:15:01;;;;;;;;;;;;;;;;;;1040202;28;3973;-48
2023/05/18 03:15:32;;;;;;;;;;;;;;;;;;1041614;28;3661;-50
2023/05/18 03:16:02;;;;;;;;;;;;;;;;;;1040914;28;4052;-47
2023/05/18 03:16:32;;;;;;;;;;;;;;;;;;1038559;28;2771;-50
2023/05/18 03:17:04;;;;;;;;;;;;;;;;;;1036930;28;3981;-51
2023/05/18 03:17:35;;;;;;;;;;;;;;;;;;1037871;28;3493;-51
2023/05/18 03:18:05;;;;;;;;;;;;;;;;;;1037242;28;4248;-50
2023/05/18 03:18:35;;;;;;;;;;;;;;;;;;1042347;28;3081;-51
2023/05/18 03:19:06;;;;;;;;;;;;;;;;;;1039435;28;4045;-49
2023/05/18 03:19:36;;;;;;;;;;;;;;;;;;1043417;28;2647;-54
2023/05/18 03:20:07;;;;;;;;;;;;;;;;;;1040538;28;3993;-50
2023/05/18 03:20:37;;;;;;;;;;;;;;;;;;1038219;28;3393;-50
2023/05/18 03:21:08;;;;;;;;;;;;;;;;;;1036189;28;3952;-50
2023/05/18 03:21:39;;;;;;;;;;;;;;;;;;1036944;28;1994;-55
2023/05/18 03:22:09;;;;;;;;;;;;;;;;;;1036796;28;3996;-51
2023/05/18 03:22:40;;;;;;;;;;;;;;;;;;1041121;28;2960;-51
2023/05/18 03:23:10;;;;;;;;;;;;;;;;;;1041842;28;3922;-50
2023/05/18 03:23:40;;;;;;;;;;;;;;;;;;1041825;28;3143;-50
2023/05/18 03:24:14;;;;;;;;;;;;;;;;;;1040014;28;3859;-56
2023/05/18 03:24:45;;;;;;;;;;;;;;;;;;1041707;28;3204;-54
2023/05/18 03:25:15;;;;;;;;;;;;;;;;;;1040753;28;3991;-50
2023/05/18 03:25:45;;;;;;;;;;;;;;;;;;1043110;28;3160;-50
2023/05/18 03:26:16;;;;;;;;;;;;;;;;;;1040257;28;4205;-51
2023/05/18 03:26:47;;;;;;;;;;;;;;;;;;1041839;28;2963;-50
2023/05/18 03:27:19;;;;;;;;;;;;;;;;;;1041583;28;4206;-49
2023/05/18 03:27:50;;;;;;;;;;;;;;;;;;1041865;28;2962;-51
2023/05/18 03:28:21;;;;;;;;;;;;;;;;;;1042206;28;3972;-50
2023/05/18 03:28:51;;;;;;;;;;;;;;;;;;1041657;28;3249;-49
2023/05/18 03:29:22;;;;;;;;;;;;;;;;;;1041501;28;3733;-54
2023/05/18 03:29:53;;;;;;;;;;;;;;;;;;1042061;28;3085;-49
2023/05/18 03:30:23;;;;;;;;;;;;;;;;;;1043338;28;3640;-50
2023/05/18 03:30:53;;;;;;;;;;;;;;;;;;1041812;28;4260;-49
2023/05/18 03:31:24;;;;;;;;;;;;;;;;;;1043593;28;3097;-51
2023/05/18 03:31:54;;;;;;;;;;;;;;;;;;1043202;28;3899;-51
2023/05/18 03:32:27;;;;;;;;;;;;;;;;;;1042676;28;1503;-53
2023/05/18 03:32:58;;;;;;;;;;;;;;;;;;1043373;28;4256;-52
2023/05/18 03:33:28;;;;;;;;;;;;;;;;;;1042470;28;2940;-50
2023/05/18 03:33:58;;;;;;;;;;;;;;;;;;1042195;28;4053;-48
2023/05/18 03:34:29;;;;;;;;;;;;;;;;;;1040117;28;2580;-49
2023/05/18 03:34:59;;;;;;;;;;;;;;;;;;1037599;28;4279;-48
2023/05/18 03:35:30;;;;;;;;;;;;;;;;;;1037887;28;1854;-46
2023/05/18 03:36:01;;;;;;;;;;;;;;;;;;1038789;28;4284;-48
2023/05/18 03:36:31;;;;;;;;;;;;;;;;;;1037532;28;2938;-50
2023/05/18 03:37:01;;;;;;;;;;;;;;;;;;1042679;28;3951;-52
2023/05/18 03:37:32;;;;;;;;;;;;;;;;;;1042362;28;2689;-50
2023/05/18 03:38:02;;;;;;;;;;;;;;;;;;1042701;28;3885;-50
2023/05/18 03:38:32;;;;;;;;;;;;;;;;;;1042891;28;2020;-49
2023/05/18 03:39:06;;;;;;;;;;;;;;;;;;1041575;28;4089;-50
2023/05/18 03:39:36;;;;;;;;;;;;;;;;;;1041096;28;3035;-51
2023/05/18 03:40:15;;;;;;;;;;;;;;;;;;1043931;28;3769;-52
2023/05/18 03:40:45;;;;;;;;;;;;;;;;;;1042951;28;1878;-49
2023/05/18 03:41:15;;;;;;;;;;;;;;;;;;1041361;28;3947;-50